sensor_id;sensor_type;location;lat;lon;timestamp;pressure;altitude;pressure_sealevel;temperature;humidity
24762;BME280;12865;51.934;10.330;2022-11-20T00:01:16;98800.78;;;-3.02;100.00
24762;BME280;12865;51.934;10.330;2022-11-20T00:03:42;98800.81;;;-3.03;100.00
24762;BME280;12865;51.934;10.330;2022-11-20T00:06:10;98801.19;;;-2.92;100.00
24762;BME280;12865;51.934;10.330;2022-11-20T00:08:36;98797.44;;;-3.05;100.00
24762;BME280;12865;51.934;10.330;2022-11-20T00:11:05;98792.38;;;-3.08;100.00
24762;BME280;12865;51.934;10.330;2022-11-20T00:13:31;98787.06;;;-3.07;100.00
24762;BME280;12865;51.934;10.330;2022-11-20T00:15:58;98781.00;;;-3.07;100.00
24762;BME280;12865;51.934;10.330;2022-11-20T00:18:24;98789.88;;;-3.11;100.00
24762;BME280;12865;51.934;10.330;2022-11-20T00:20:50;98784.94;;;-3.18;100.00
24762;BME280;12865;51.934;10.330;2022-11-20T00:23:15;98788.13;;;-3.11;100.00
24762;BME280;12865;51.934;10.330;2022-11-20T00:25:40;98784.94;;;-3.18;100.00
24762;BME280;12865;51.934;10.330;2022-11-20T00:28:06;98799.66;;;-3.17;100.00
24762;BME280;12865;51.934;10.330;2022-11-20T00:30:31;98784.59;;;-3.10;100.00
24762;BME280;12865;51.934;10.330;2022-11-20T00:32:57;98787.38;;;-3.14;100.00
24762;BME280;12865;51.934;10.330;2022-11-20T00:35:23;98787.16;;;-3.08;100.00
24762;BME280;12865;51.934;10.330;2022-11-20T00:37:48;98782.91;;;-3.11;100.00
24762;BME280;12865;51.934;10.330;2022-11-20T00:40:14;98783.69;;;-3.09;100.00
24762;BME280;12865;51.934;10.330;2022-11-20T00:42:39;98787.72;;;-3.02;100.00
24762;BME280;12865;51.934;10.330;2022-11-20T00:45:05;98784.06;;;-2.98;100.00
24762;BME280;12865;51.934;10.330;2022-11-20T00:47:30;98787.16;;;-3.08;100.00
24762;BME280;12865;51.934;10.330;2022-11-20T00:49:56;98788.69;;;-3.04;100.00
24762;BME280;12865;51.934;10.330;2022-11-20T00:52:21;98793.13;;;-3.06;100.00
24762;BME280;12865;51.934;10.330;2022-11-20T00:54:46;98796.06;;;-3.14;100.00
24762;BME280;12865;51.934;10.330;2022-11-20T00:57:12;98786.53;;;-3.15;100.00
24762;BME280;12865;51.934;10.330;2022-11-20T00:59:37;98781.31;;;-3.15;100.00
24762;BME280;12865;51.934;10.330;2022-11-20T01:02:02;98785.78;;;-3.17;100.00
24762;BME280;12865;51.934;10.330;2022-11-20T01:04:28;98784.72;;;-3.13;100.00
24762;BME280;12865;51.934;10.330;2022-11-20T01:06:53;98786.47;;;-3.13;100.00
24762;BME280;12865;51.934;10.330;2022-11-20T01:09:18;98787.16;;;-3.08;100.00
24762;BME280;12865;51.934;10.330;2022-11-20T01:11:44;98780.81;;;-3.03;100.00
24762;BME280;12865;51.934;10.330;2022-11-20T01:14:15;98782.16;;;-3.14;100.00
24762;BME280;12865;51.934;10.330;2022-11-20T01:16:44;98788.44;;;-3.19;100.00
24762;BME280;12865;51.934;10.330;2022-11-20T01:19:15;98778.34;;;-3.26;100.00
24762;BME280;12865;51.934;10.330;2022-11-20T01:21:43;98778.41;;;-3.28;100.00
24762;BME280;12865;51.934;10.330;2022-11-20T01:24:12;98772.00;;;-3.21;100.00
24762;BME280;12865;51.934;10.330;2022-11-20T01:26:39;98770.72;;;-3.10;100.00
24762;BME280;12865;51.934;10.330;2022-11-20T01:29:06;98776.97;;;-3.14;100.00
24762;BME280;12865;51.934;10.330;2022-11-20T01:31:36;98768.28;;;-3.15;100.00
24762;BME280;12865;51.934;10.330;2022-11-20T01:34:09;98767.06;;;-3.27;100.00
24762;BME280;12865;51.934;10.330;2022-11-20T01:36:36;98761.75;;;-3.24;100.00
24762;BME280;12865;51.934;10.330;2022-11-20T01:39:17;98757.59;;;-3.29;100.00
24762;BME280;12865;51.934;10.330;2022-11-20T01:41:43;98757.06;;;-3.15;100.00
24762;BME280;12865;51.934;10.330;2022-11-20T01:47:20;98754.88;;;-3.26;100.00
24762;BME280;12865;51.934;10.330;2022-11-20T01:49:50;98749.63;;;-3.25;100.00
24762;BME280;12865;51.934;10.330;2022-11-20T01:52:21;98745.03;;;-3.20;100.00
24762;BME280;12865;51.934;10.330;2022-11-20T01:55:00;98741.16;;;-3.30;100.00
24762;BME280;12865;51.934;10.330;2022-11-20T01:57:28;98741.34;;;-3.34;100.00
24762;BME280;12865;51.934;10.330;2022-11-20T02:00:00;98736.13;;;-3.34;100.00
24762;BME280;12865;51.934;10.330;2022-11-20T02:02:27;98731.91;;;-3.37;100.00
24762;BME280;12865;51.934;10.330;2022-11-20T02:04:54;98731.13;;;-3.39;100.00
24762;BME280;12865;51.934;10.330;2022-11-20T02:07:22;98728.50;;;-3.39;100.00
24762;BME280;12865;51.934;10.330;2022-11-20T02:09:47;98724.22;;;-3.40;100.00
24762;BME280;12865;51.934;10.330;2022-11-20T02:12:13;98718.16;;;-3.40;100.00
24762;BME280;12865;51.934;10.330;2022-11-20T02:14:58;98717.72;;;-3.30;100.00
24762;BME280;12865;51.934;10.330;2022-11-20T02:17:25;98717.09;;;-3.36;100.00
24762;BME280;12865;51.934;10.330;2022-11-20T02:19:50;98711.56;;;-3.29;100.00
24762;BME280;12865;51.934;10.330;2022-11-20T02:22:28;98717.03;;;-3.35;100.00
24762;BME280;12865;51.934;10.330;2022-11-20T02:24:56;98717.75;;;-3.31;100.00
24762;BME280;12865;51.934;10.330;2022-11-20T02:27:23;98719.19;;;-3.24;100.00
24762;BME280;12865;51.934;10.330;2022-11-20T02:30:02;98715.59;;;-3.42;100.00
24762;BME280;12865;51.934;10.330;2022-11-20T02:32:31;98717.69;;;-3.50;100.00
24762;BME280;12865;51.934;10.330;2022-11-20T02:34:57;98720.28;;;-3.50;100.00
24762;BME280;12865;51.934;10.330;2022-11-20T02:37:28;98712.56;;;-3.51;100.00
24762;BME280;12865;51.934;10.330;2022-11-20T02:39:56;98710.94;;;-3.54;100.00
24762;BME280;12865;51.934;10.330;2022-11-20T02:42:21;98715.66;;;-3.43;100.00
24762;BME280;12865;51.934;10.330;2022-11-20T02:44:46;98713.31;;;-3.49;100.00
24762;BME280;12865;51.934;10.330;2022-11-20T02:47:12;98716.13;;;-3.54;100.00
24762;BME280;12865;51.934;10.330;2022-11-20T02:49:37;98714.31;;;-3.52;100.00
24762;BME280;12865;51.934;10.330;2022-11-20T02:52:03;98715.50;;;-3.59;100.00
24762;BME280;12865;51.934;10.330;2022-11-20T02:54:28;98714.31;;;-3.52;100.00
24762;BME280;12865;51.934;10.330;2022-11-20T02:56:53;98718.84;;;-3.57;100.00
24762;BME280;12865;51.934;10.330;2022-11-20T02:59:19;98706.44;;;-3.50;100.00
24762;BME280;12865;51.934;10.330;2022-11-20T03:01:44;98716.88;;;-3.50;100.00
24762;BME280;12865;51.934;10.330;2022-11-20T03:04:09;98719.38;;;-3.49;100.00
24762;BME280;12865;51.934;10.330;2022-11-20T03:06:35;98710.81;;;-3.51;100.00
24762;BME280;12865;51.934;10.330;2022-11-20T03:09:00;98709.75;;;-3.47;100.00
24762;BME280;12865;51.934;10.330;2022-11-20T03:11:26;98708.09;;;-3.49;100.00
24762;BME280;12865;51.934;10.330;2022-11-20T03:13:52;98711.66;;;-3.50;100.00
24762;BME280;12865;51.934;10.330;2022-11-20T03:16:20;98710.34;;;-3.40;100.00
24762;BME280;12865;51.934;10.330;2022-11-20T03:18:46;98706.34;;;-3.49;100.00
24762;BME280;12865;51.934;10.330;2022-11-20T03:21:12;98709.75;;;-3.47;100.00
24762;BME280;12865;51.934;10.330;2022-11-20T03:23:38;98704.91;;;-3.36;100.00
24762;BME280;12865;51.934;10.330;2022-11-20T03:26:21;98694.59;;;-3.37;100.00
24762;BME280;12865;51.934;10.330;2022-11-20T03:28:57;98698.41;;;-3.46;100.00
24762;BME280;12865;51.934;10.330;2022-11-20T03:31:28;98705.59;;;-3.51;100.00
24762;BME280;12865;51.934;10.330;2022-11-20T03:33:56;98708.59;;;-3.60;100.00
24762;BME280;12865;51.934;10.330;2022-11-20T03:36:21;98701.16;;;-3.69;100.00
24762;BME280;12865;51.934;10.330;2022-11-20T03:38:47;98705.72;;;-3.54;100.00
24762;BME280;12865;51.934;10.330;2022-11-20T03:41:16;98707.16;;;-3.47;100.00
24762;BME280;12865;51.934;10.330;2022-11-20T03:43:47;98700.38;;;-3.51;100.00
24762;BME280;12865;51.934;10.330;2022-11-20T03:46:12;98691.63;;;-3.50;100.00
24762;BME280;12865;51.934;10.330;2022-11-20T03:48:38;98689.97;;;-3.51;100.00
24762;BME280;12865;51.934;10.330;2022-11-20T03:53:45;98677.59;;;-3.46;100.00
24762;BME280;12865;51.934;10.330;2022-11-20T03:56:12;98688.28;;;-3.52;100.00
24762;BME280;12865;51.934;10.330;2022-11-20T03:58:39;98676.09;;;-3.51;100.00
24762;BME280;12865;51.934;10.330;2022-11-20T04:01:09;98679.19;;;-3.43;100.00
24762;BME280;12865;51.934;10.330;2022-11-20T04:03:36;98668.75;;;-3.43;100.00
24762;BME280;12865;51.934;10.330;2022-11-20T04:06:24;98668.00;;;-3.45;100.00
24762;BME280;12865;51.934;10.330;2022-11-20T04:08:49;98661.94;;;-3.46;100.00
24762;BME280;12865;51.934;10.330;2022-11-20T04:11:17;98672.44;;;-3.47;100.00
24762;BME280;12865;51.934;10.330;2022-11-20T04:13:47;98661.03;;;-3.45;100.00
24762;BME280;12865;51.934;10.330;2022-11-20T04:16:13;98652.72;;;-3.53;100.00
24762;BME280;12865;51.934;10.330;2022-11-20T04:18:38;98662.00;;;-3.47;100.00
24762;BME280;12865;51.934;10.330;2022-11-20T04:21:04;98656.22;;;-3.54;100.00
24762;BME280;12865;51.934;10.330;2022-11-20T04:23:30;98656.59;;;-3.43;100.00
24762;BME280;12865;51.934;10.330;2022-11-20T04:26:10;98659.28;;;-3.44;100.00
24762;BME280;12865;51.934;10.330;2022-11-20T04:28:37;98654.34;;;-3.50;100.00
24762;BME280;12865;51.934;10.330;2022-11-20T04:31:05;98658.13;;;-3.58;100.00
24762;BME280;12865;51.934;10.330;2022-11-20T04:33:32;98658.88;;;-3.56;100.00
24762;BME280;12865;51.934;10.330;2022-11-20T04:36:13;98651.91;;;-3.55;100.00
24762;BME280;12865;51.934;10.330;2022-11-20T04:38:39;98650.09;;;-3.53;100.00
24762;BME280;12865;51.934;10.330;2022-11-20T04:41:07;98645.84;;;-3.56;100.00
24762;BME280;12865;51.934;10.330;2022-11-20T04:43:33;98652.66;;;-3.51;100.00
24762;BME280;12865;51.934;10.330;2022-11-20T04:46:00;98646.66;;;-3.53;100.00
24762;BME280;12865;51.934;10.330;2022-11-20T04:48:27;98659.78;;;-3.57;100.00
24762;BME280;12865;51.934;10.330;2022-11-20T04:50:53;98645.44;;;-3.65;100.00
24762;BME280;12865;51.934;10.330;2022-11-20T04:53:19;98644.38;;;-3.61;100.00
24762;BME280;12865;51.934;10.330;2022-11-20T04:55:45;98650.81;;;-3.70;100.00
24762;BME280;12865;51.934;10.330;2022-11-20T04:58:12;98646.59;;;-3.72;100.00
24762;BME280;12865;51.934;10.330;2022-11-20T05:00:37;98652.19;;;-3.61;100.00
24762;BME280;12865;51.934;10.330;2022-11-20T05:03:03;98648.78;;;-3.63;100.00
24762;BME280;12865;51.934;10.330;2022-11-20T05:05:28;98638.19;;;-3.59;100.00
24762;BME280;12865;51.934;10.330;2022-11-20T05:07:56;98635.72;;;-3.62;100.00
24762;BME280;12865;51.934;10.330;2022-11-20T05:10:23;98638.94;;;-3.57;100.00
24762;BME280;12865;51.934;10.330;2022-11-20T05:12:48;98635.16;;;-3.49;100.00
24762;BME280;12865;51.934;10.330;2022-11-20T05:15:14;98632.38;;;-3.45;100.00
24762;BME280;12865;51.934;10.330;2022-11-20T05:17:39;98638.78;;;-3.52;100.00
24762;BME280;12865;51.934;10.330;2022-11-20T05:20:05;98636.50;;;-3.60;100.00
24762;BME280;12865;51.934;10.330;2022-11-20T05:22:30;98649.91;;;-3.69;100.00
24762;BME280;12865;51.934;10.330;2022-11-20T05:24:55;98641.13;;;-3.66;100.00
24762;BME280;12865;51.934;10.330;2022-11-20T05:27:21;98643.72;;;-3.66;100.00
24762;BME280;12865;51.934;10.330;2022-11-20T05:29:46;98644.69;;;-3.69;100.00
24762;BME280;12865;51.934;10.330;2022-11-20T05:32:11;98652.31;;;-3.64;100.00
24762;BME280;12865;51.934;10.330;2022-11-20T05:34:37;98648.84;;;-3.85;100.00
24762;BME280;12865;51.934;10.330;2022-11-20T05:37:02;98645.75;;;-3.93;100.00
24762;BME280;12865;51.934;10.330;2022-11-20T05:39:28;98638.59;;;-4.08;100.00
24762;BME280;12865;51.934;10.330;2022-11-20T05:41:53;98642.34;;;-4.15;100.00
24762;BME280;12865;51.934;10.330;2022-11-20T05:44:39;98640.19;;;-4.26;100.00
24762;BME280;12865;51.934;10.330;2022-11-20T05:47:05;98636.28;;;-4.36;100.00
24762;BME280;12865;51.934;10.330;2022-11-20T05:49:30;98637.13;;;-4.36;100.00
24762;BME280;12865;51.934;10.330;2022-11-20T05:51:56;98636.03;;;-4.30;100.00
24762;BME280;12865;51.934;10.330;2022-11-20T05:54:22;98636.81;;;-4.28;100.00
24762;BME280;12865;51.934;10.330;2022-11-20T05:56:47;98638.88;;;-4.36;100.00
24762;BME280;12865;51.934;10.330;2022-11-20T05:59:12;98632.88;;;-4.38;100.00
24762;BME280;12865;51.934;10.330;2022-11-20T06:01:38;98634.56;;;-4.37;100.00
24762;BME280;12865;51.934;10.330;2022-11-20T06:04:03;98629.47;;;-4.40;100.00
24762;BME280;12865;51.934;10.330;2022-11-20T06:06:29;98627.78;;;-4.41;100.00
24762;BME280;12865;51.934;10.330;2022-11-20T06:08:54;98623.53;;;-4.42;100.00
24762;BME280;12865;51.934;10.330;2022-11-20T06:11:20;98631.06;;;-4.36;100.00
24762;BME280;12865;51.934;10.330;2022-11-20T06:13:46;98631.72;;;-4.31;100.00
24762;BME280;12865;51.934;10.330;2022-11-20T06:16:14;98624.00;;;-4.12;100.00
24762;BME280;12865;51.934;10.330;2022-11-20T06:18:39;98623.81;;;-4.08;100.00
24762;BME280;12865;51.934;10.330;2022-11-20T06:21:10;98626.53;;;-4.11;100.00
24762;BME280;12865;51.934;10.330;2022-11-20T06:23:36;98624.41;;;-4.01;100.00
24762;BME280;12865;51.934;10.330;2022-11-20T06:26:07;98628.31;;;-3.91;100.00
24762;BME280;12865;51.934;10.330;2022-11-20T06:28:33;98619.59;;;-3.90;100.00
24762;BME280;12865;51.934;10.330;2022-11-20T06:30:58;98625.25;;;-3.80;100.00
24762;BME280;12865;51.934;10.330;2022-11-20T06:33:24;98624.34;;;-3.79;100.00
24762;BME280;12865;51.934;10.330;2022-11-20T06:35:51;98619.72;;;-3.73;100.00
24762;BME280;12865;51.934;10.330;2022-11-20T06:38:16;98615.59;;;-3.78;100.00
24762;BME280;12865;51.934;10.330;2022-11-20T06:40:42;98620.81;;;-3.78;100.00
24762;BME280;12865;51.934;10.330;2022-11-20T06:43:09;98620.81;;;-3.78;100.00
24762;BME280;12865;51.934;10.330;2022-11-20T06:45:34;98627.19;;;-3.85;100.00
24762;BME280;12865;51.934;10.330;2022-11-20T06:47:59;98613.72;;;-3.75;100.00
24762;BME280;12865;51.934;10.330;2022-11-20T06:50:25;98613.66;;;-3.73;100.00
24762;BME280;12865;51.934;10.330;2022-11-20T06:52:50;98607.03;;;-3.80;100.00
24762;BME280;12865;51.934;10.330;2022-11-20T06:55:15;98615.94;;;-3.86;100.00
24762;BME280;12865;51.934;10.330;2022-11-20T06:57:41;98606.25;;;-3.82;100.00
24762;BME280;12865;51.934;10.330;2022-11-20T07:00:06;98612.50;;;-3.86;100.00
24762;BME280;12865;51.934;10.330;2022-11-20T07:02:32;98610.28;;;-3.75;100.00
24762;BME280;12865;51.934;10.330;2022-11-20T07:04:57;98606.81;;;-3.76;100.00
24762;BME280;12865;51.934;10.330;2022-11-20T07:07:23;98602.97;;;-3.67;100.00
24762;BME280;12865;51.934;10.330;2022-11-20T07:09:48;98603.44;;;-3.78;100.00
24762;BME280;12865;51.934;10.330;2022-11-20T07:12:13;98605.78;;;-3.72;100.00
24762;BME280;12865;51.934;10.330;2022-11-20T07:14:39;98601.03;;;-3.82;100.00
24762;BME280;12865;51.934;10.330;2022-11-20T07:17:04;98600.81;;;-3.78;100.00
24762;BME280;12865;51.934;10.330;2022-11-20T07:19:29;98604.25;;;-3.57;100.00
24762;BME280;12865;51.934;10.330;2022-11-20T07:21:55;98609.41;;;-3.56;100.00
24762;BME280;12865;51.934;10.330;2022-11-20T07:24:20;98604.47;;;-3.62;100.00
24762;BME280;12865;51.934;10.330;2022-11-20T07:26:46;98609.44;;;-3.37;100.00
24762;BME280;12865;51.934;10.330;2022-11-20T07:29:14;98608.94;;;-3.45;100.00
24762;BME280;12865;51.934;10.330;2022-11-20T07:31:39;98612.03;;;-3.37;100.00
24762;BME280;12865;51.934;10.330;2022-11-20T07:34:05;98613.66;;;-3.34;100.00
24762;BME280;12865;51.934;10.330;2022-11-20T07:36:30;98611.63;;;-3.28;100.00
24762;BME280;12865;51.934;10.330;2022-11-20T07:38:56;98608.72;;;-3.22;100.00
24762;BME280;12865;51.934;10.330;2022-11-20T07:41:21;98614.38;;;-3.12;100.00
24762;BME280;12865;51.934;10.330;2022-11-20T07:43:46;98615.00;;;-3.07;100.00
24762;BME280;12865;51.934;10.330;2022-11-20T07:46:11;98614.44;;;-3.13;100.00
24762;BME280;12865;51.934;10.330;2022-11-20T07:48:37;98605.34;;;-3.05;100.00
24762;BME280;12865;51.934;10.330;2022-11-20T07:51:02;98600.94;;;-3.03;100.00
24762;BME280;12865;51.934;10.330;2022-11-20T07:53:28;98608.03;;;-3.06;100.00
24762;BME280;12865;51.934;10.330;2022-11-20T07:55:53;98607.63;;;-2.97;100.00
24762;BME280;12865;51.934;10.330;2022-11-20T07:58:19;98603.38;;;-3.00;100.00
24762;BME280;12865;51.934;10.330;2022-11-20T08:00:45;98599.84;;;-2.80;100.00
24762;BME280;12865;51.934;10.330;2022-11-20T08:03:10;98604.13;;;-2.79;100.00
24762;BME280;12865;51.934;10.330;2022-11-20T08:05:36;98600.06;;;-2.85;100.00
24762;BME280;12865;51.934;10.330;2022-11-20T08:08:02;98604.44;;;-2.85;100.00
24762;BME280;12865;51.934;10.330;2022-11-20T08:10:28;98598.38;;;-2.86;100.00
24762;BME280;12865;51.934;10.330;2022-11-20T08:12:53;98607.59;;;-2.79;100.00
24762;BME280;12865;51.934;10.330;2022-11-20T08:15:38;98602.13;;;-2.55;100.00
24762;BME280;12865;51.934;10.330;2022-11-20T08:18:05;98603.06;;;-2.56;100.00
24762;BME280;12865;51.934;10.330;2022-11-20T08:20:32;98601.47;;;-2.42;100.00
24762;BME280;12865;51.934;10.330;2022-11-20T08:22:59;98601.56;;;-2.26;100.00
24762;BME280;12865;51.934;10.330;2022-11-20T08:25:25;98597.56;;;-2.16;98.78
24762;BME280;12865;51.934;10.330;2022-11-20T08:27:51;98605.88;;;-2.08;98.31
24762;BME280;12865;51.934;10.330;2022-11-20T08:30:16;98606.56;;;-2.04;97.92
24762;BME280;12865;51.934;10.330;2022-11-20T08:32:42;98598.03;;;-1.90;97.89
24762;BME280;12865;51.934;10.330;2022-11-20T08:35:08;98602.34;;;-1.89;97.93
24762;BME280;12865;51.934;10.330;2022-11-20T08:37:33;98609.16;;;-1.70;97.08
24762;BME280;12865;51.934;10.330;2022-11-20T08:39:59;98599.31;;;-1.65;96.11
24762;BME280;12865;51.934;10.330;2022-11-20T08:42:24;98597.81;;;-1.53;95.46
24762;BME280;12865;51.934;10.330;2022-11-20T08:44:49;98609.63;;;-1.46;95.49
24762;BME280;12865;51.934;10.330;2022-11-20T08:47:15;98616.94;;;-1.35;94.80
24762;BME280;12865;51.934;10.330;2022-11-20T08:49:40;98616.56;;;-1.45;96.53
24762;BME280;12865;51.934;10.330;2022-11-20T08:52:05;98615.72;;;-1.45;96.82
24762;BME280;12865;51.934;10.330;2022-11-20T08:54:31;98624.97;;;-1.55;97.29
24762;BME280;12865;51.934;10.330;2022-11-20T08:56:56;98615.25;;;-1.36;97.05
24762;BME280;12865;51.934;10.330;2022-11-20T08:59:21;98619.94;;;-1.43;95.95
24762;BME280;12865;51.934;10.330;2022-11-20T09:01:47;98619.75;;;-1.40;95.27
24762;BME280;12865;51.934;10.330;2022-11-20T09:04:12;98618.38;;;-1.30;95.25
24762;BME280;12865;51.934;10.330;2022-11-20T09:06:39;98620.09;;;-1.13;94.68
24762;BME280;12865;51.934;10.330;2022-11-20T09:09:05;98621.72;;;-0.95;94.79
24762;BME280;12865;51.934;10.330;2022-11-20T09:11:31;98618.84;;;-0.74;94.38
24762;BME280;12865;51.934;10.330;2022-11-20T09:13:56;98609.53;;;-0.49;94.99
24762;BME280;12865;51.934;10.330;2022-11-20T09:16:22;98612.56;;;-0.25;94.74
24762;BME280;12865;51.934;10.330;2022-11-20T09:18:49;98619.50;;;0.06;95.03
24762;BME280;12865;51.934;10.330;2022-11-20T09:21:15;98612.00;;;0.14;91.04
24762;BME280;12865;51.934;10.330;2022-11-20T09:23:40;98604.94;;;0.30;91.85
24762;BME280;12865;51.934;10.330;2022-11-20T09:26:09;98606.75;;;0.44;90.74
24762;BME280;12865;51.934;10.330;2022-11-20T09:28:35;98612.84;;;0.73;89.94
24762;BME280;12865;51.934;10.330;2022-11-20T09:31:00;98613.31;;;0.94;88.18
24762;BME280;12865;51.934;10.330;2022-11-20T09:33:26;98616.28;;;1.16;88.53
24762;BME280;12865;51.934;10.330;2022-11-20T09:35:52;98608.47;;;1.29;84.92
24762;BME280;12865;51.934;10.330;2022-11-20T09:38:17;98603.75;;;1.48;85.81
24762;BME280;12865;51.934;10.330;2022-11-20T09:40:55;98603.59;;;1.64;85.01
24762;BME280;12865;51.934;10.330;2022-11-20T09:43:54;98596.97;;;1.97;85.96
24762;BME280;12865;51.934;10.330;2022-11-20T09:46:37;98594.63;;;2.32;84.76
24762;BME280;12865;51.934;10.330;2022-11-20T09:49:23;98592.13;;;2.56;81.21
24762;BME280;12865;51.934;10.330;2022-11-20T09:52:01;98591.69;;;2.62;78.77
24762;BME280;12865;51.934;10.330;2022-11-20T09:54:35;98594.41;;;2.73;77.91
24762;BME280;12865;51.934;10.330;2022-11-20T09:57:08;98589.59;;;2.29;78.89
24762;BME280;12865;51.934;10.330;2022-11-20T09:59:40;98587.16;;;1.74;81.34
24762;BME280;12865;51.934;10.330;2022-11-20T10:05:06;98598.44;;;0.80;86.65
24762;BME280;12865;51.934;10.330;2022-11-20T10:07:41;98596.56;;;0.68;89.44
24762;BME280;12865;51.934;10.330;2022-11-20T10:10:40;98591.78;;;0.60;90.96
24762;BME280;12865;51.934;10.330;2022-11-20T10:29:00;98581.81;;;0.37;94.96
24762;BME280;12865;51.934;10.330;2022-11-20T10:31:39;98577.16;;;0.42;95.57
24762;BME280;12865;51.934;10.330;2022-11-20T10:34:30;98578.47;;;0.49;95.71
24762;BME280;12865;51.934;10.330;2022-11-20T10:37:01;98563.22;;;0.56;96.04
24762;BME280;12865;51.934;10.330;2022-11-20T10:39:36;98565.47;;;0.62;94.84
24762;BME280;12865;51.934;10.330;2022-11-20T10:42:11;98555.16;;;0.73;94.26
24762;BME280;12865;51.934;10.330;2022-11-20T10:44:39;98551.75;;;0.85;90.04
24762;BME280;12865;51.934;10.330;2022-11-20T10:47:24;98545.78;;;0.83;89.62
24762;BME280;12865;51.934;10.330;2022-11-20T10:49:55;98540.78;;;0.93;87.56
24762;BME280;12865;51.934;10.330;2022-11-20T10:58:10;98531.53;;;0.73;84.23
24762;BME280;12865;51.934;10.330;2022-11-20T11:00:38;98529.22;;;0.68;85.67
24762;BME280;12865;51.934;10.330;2022-11-20T11:03:26;98524.22;;;0.64;87.82
24762;BME280;12865;51.934;10.330;2022-11-20T11:06:14;98509.72;;;0.58;90.01
24762;BME280;12865;51.934;10.330;2022-11-20T11:08:42;98517.00;;;0.82;89.07
24762;BME280;12865;51.934;10.330;2022-11-20T11:11:20;98512.31;;;1.13;88.76
24762;BME280;12865;51.934;10.330;2022-11-20T11:13:46;98511.03;;;1.33;85.24
24762;BME280;12865;51.934;10.330;2022-11-20T11:16:26;98511.13;;;1.58;85.48
24762;BME280;12865;51.934;10.330;2022-11-20T11:19:02;98506.97;;;1.81;84.90
24762;BME280;12865;51.934;10.330;2022-11-20T11:21:28;98500.81;;;2.08;84.14
24762;BME280;12865;51.934;10.330;2022-11-20T11:24:02;98498.59;;;2.27;82.61
24762;BME280;12865;51.934;10.330;2022-11-20T11:26:28;98503.13;;;2.38;80.72
24762;BME280;12865;51.934;10.330;2022-11-20T11:29:03;98497.75;;;2.52;79.53
24762;BME280;12865;51.934;10.330;2022-11-20T11:31:33;98503.41;;;2.58;77.69
24762;BME280;12865;51.934;10.330;2022-11-20T11:34:12;98499.19;;;2.56;75.34
24762;BME280;12865;51.934;10.330;2022-11-20T11:36:38;98487.09;;;2.66;77.40
24762;BME280;12865;51.934;10.330;2022-11-20T11:39:05;98499.25;;;2.67;75.11
24762;BME280;12865;51.934;10.330;2022-11-20T11:41:34;98494.00;;;2.80;75.78
24762;BME280;12865;51.934;10.330;2022-11-20T11:44:16;98490.63;;;2.78;72.80
24762;BME280;12865;51.934;10.330;2022-11-20T11:47:02;98488.22;;;2.62;74.41
24762;BME280;12865;51.934;10.330;2022-11-20T11:49:28;98488.03;;;2.65;74.21
24762;BME280;12865;51.934;10.330;2022-11-20T11:52:18;98491.78;;;2.86;75.95
24762;BME280;12865;51.934;10.330;2022-11-20T11:54:53;98487.75;;;2.93;73.31
24762;BME280;12865;51.934;10.330;2022-11-20T11:57:29;98487.19;;;3.01;74.21
24762;BME280;12865;51.934;10.330;2022-11-20T12:00:10;98484.97;;;2.95;72.60
24762;BME280;12865;51.934;10.330;2022-11-20T12:10:49;98481.75;;;2.91;74.61
24762;BME280;12865;51.934;10.330;2022-11-20T12:16:00;98480.75;;;2.68;73.69
24762;BME280;12865;51.934;10.330;2022-11-20T12:18:27;98474.88;;;2.65;72.67
24762;BME280;12865;51.934;10.330;2022-11-20T12:29:26;98466.16;;;2.88;71.51
24762;BME280;12865;51.934;10.330;2022-11-20T12:34:51;98470.81;;;2.85;69.44
24762;BME280;12865;51.934;10.330;2022-11-20T12:40:44;98482.94;;;2.87;69.65
24762;BME280;12865;51.934;10.330;2022-11-20T12:43:27;98487.06;;;2.79;72.01
24762;BME280;12865;51.934;10.330;2022-11-20T13:05:28;98476.44;;;2.67;73.46
24762;BME280;12865;51.934;10.330;2022-11-20T13:07:57;98474.34;;;2.60;73.79
24762;BME280;12865;51.934;10.330;2022-11-20T13:10:33;98466.88;;;2.54;75.02
24762;BME280;12865;51.934;10.330;2022-11-20T13:13:16;98468.25;;;2.59;74.02
24762;BME280;12865;51.934;10.330;2022-11-20T13:15:50;98469.47;;;2.66;73.90
24762;BME280;12865;51.934;10.330;2022-11-20T13:18:17;98474.00;;;2.77;72.61
24762;BME280;12865;51.934;10.330;2022-11-20T13:20:44;98465.91;;;2.80;71.58
24762;BME280;12865;51.934;10.330;2022-11-20T13:23:10;98462.59;;;2.89;72.22
24762;BME280;12865;51.934;10.330;2022-11-20T13:25:38;98469.09;;;2.96;71.99
24762;BME280;12865;51.934;10.330;2022-11-20T13:28:27;98477.72;;;2.98;70.73
24762;BME280;12865;51.934;10.330;2022-11-20T13:30:53;98474.25;;;2.98;69.95
24762;BME280;12865;51.934;10.330;2022-11-20T13:33:34;98476.94;;;2.85;69.94
24762;BME280;12865;51.934;10.330;2022-11-20T13:36:23;98475.25;;;2.84;70.63
24762;BME280;12865;51.934;10.330;2022-11-20T13:38:51;98466.75;;;2.68;71.72
24762;BME280;12865;51.934;10.330;2022-11-20T13:41:32;98464.16;;;2.55;71.55
24762;BME280;12865;51.934;10.330;2022-11-20T13:44:29;98467.63;;;2.56;70.79
24762;BME280;12865;51.934;10.330;2022-11-20T13:46:54;98470.69;;;2.50;71.46
24762;BME280;12865;51.934;10.330;2022-11-20T13:49:39;98468.41;;;2.45;72.18
24762;BME280;12865;51.934;10.330;2022-11-20T14:00:56;98445.81;;;1.92;73.48
24762;BME280;12865;51.934;10.330;2022-11-20T14:03:23;98438.84;;;1.91;74.19
24762;BME280;12865;51.934;10.330;2022-11-20T14:05:54;98449.03;;;1.83;75.26
24762;BME280;12865;51.934;10.330;2022-11-20T14:08:42;98449.03;;;1.83;74.49
24762;BME280;12865;51.934;10.330;2022-11-20T14:11:20;98447.06;;;1.74;76.73
24762;BME280;12865;51.934;10.330;2022-11-20T14:16:24;98444.63;;;1.71;76.18
24762;BME280;12865;51.934;10.330;2022-11-20T14:18:50;98443.16;;;1.67;77.30
24762;BME280;12865;51.934;10.330;2022-11-20T14:21:23;98447.47;;;1.68;76.50